Terminal Aerodrome Forecast
Issued by NWS Binghamton, NY

Home | Current Version | Previous Version | Text Only | Print | Product List | Glossary On
Versions: 1 2 3 4 5 6 7 8 9 10 11 12 13 14 15 16 17 18 19 20 21 22 23 24 25 26 27 28 29
000
FTUS41 KBGM 230833 AAA
TAFAVP
TAF AMD
KAVP 230833Z 2309/2406 09010G20KT P6SM OVC012
     FM231100 08014G28KT P6SM OVC010
      TEMPO 2311/2315 5SM -RA OVC003
     FM231500 06015G28KT 3SM -RA OVC015
     FM240000 05014G26KT 2SM -SNPLRA OVC008=

USA.gov is the U.S. government's official web portal to all federal, state and local government web resources and services.